sensor_id;sensor_type;location;lat;lon;timestamp;P1;durP1;ratioP1;P2;durP2;ratioP2
36353;SDS011;22383;51.114;13.666;2024-03-07T00:00:04;87.50;;;30.88;;
36353;SDS011;22383;51.114;13.666;2024-03-07T00:02:42;88.22;;;31.00;;
36353;SDS011;22383;51.114;13.666;2024-03-07T00:05:13;100.35;;;32.70;;
36353;SDS011;22383;51.114;13.666;2024-03-07T00:07:44;97.05;;;29.75;;
36353;SDS011;22383;51.114;13.666;2024-03-07T00:10:11;94.45;;;30.80;;
36353;SDS011;22383;51.114;13.666;2024-03-07T00:12:39;87.57;;;30.00;;
36353;SDS011;22383;51.114;13.666;2024-03-07T00:15:08;96.00;;;32.97;;
36353;SDS011;22383;51.114;13.666;2024-03-07T00:17:37;93.90;;;31.80;;
36353;SDS011;22383;51.114;13.666;2024-03-07T00:20:06;94.35;;;32.08;;
36353;SDS011;22383;51.114;13.666;2024-03-07T00:22:41;88.63;;;30.42;;
36353;SDS011;22383;51.114;13.666;2024-03-07T00:25:09;100.78;;;33.20;;
36353;SDS011;22383;51.114;13.666;2024-03-07T00:27:36;99.93;;;31.58;;
36353;SDS011;22383;51.114;13.666;2024-03-07T00:30:04;103.22;;;33.33;;
36353;SDS011;22383;51.114;13.666;2024-03-07T00:32:33;109.10;;;36.38;;
36353;SDS011;22383;51.114;13.666;2024-03-07T00:35:04;112.45;;;35.28;;
36353;SDS011;22383;51.114;13.666;2024-03-07T00:37:31;106.95;;;36.35;;
36353;SDS011;22383;51.114;13.666;2024-03-07T00:39:58;104.38;;;34.83;;
36353;SDS011;22383;51.114;13.666;2024-03-07T00:42:25;106.10;;;35.72;;
36353;SDS011;22383;51.114;13.666;2024-03-07T00:44:54;115.38;;;35.25;;
36353;SDS011;22383;51.114;13.666;2024-03-07T00:49:49;98.78;;;31.98;;
36353;SDS011;22383;51.114;13.666;2024-03-07T00:52:17;129.60;;;36.15;;
36353;SDS011;22383;51.114;13.666;2024-03-07T00:54:44;141.45;;;35.60;;
36353;SDS011;22383;51.114;13.666;2024-03-07T00:57:11;133.52;;;36.08;;
36353;SDS011;22383;51.114;13.666;2024-03-07T00:59:38;151.30;;;38.35;;
36353;SDS011;22383;51.114;13.666;2024-03-07T01:02:05;136.80;;;36.30;;
36353;SDS011;22383;51.114;13.666;2024-03-07T01:04:34;209.65;;;39.25;;
36353;SDS011;22383;51.114;13.666;2024-03-07T01:07:01;173.63;;;36.72;;
36353;SDS011;22383;51.114;13.666;2024-03-07T01:09:28;202.48;;;39.35;;
36353;SDS011;22383;51.114;13.666;2024-03-07T01:11:56;181.23;;;39.10;;
36353;SDS011;22383;51.114;13.666;2024-03-07T01:14:25;129.80;;;37.60;;
36353;SDS011;22383;51.114;13.666;2024-03-07T01:16:53;162.38;;;38.13;;
36353;SDS011;22383;51.114;13.666;2024-03-07T01:19:21;202.35;;;41.25;;
36353;SDS011;22383;51.114;13.666;2024-03-07T01:21:48;216.95;;;41.28;;
36353;SDS011;22383;51.114;13.666;2024-03-07T01:24:15;238.93;;;41.78;;
36353;SDS011;22383;51.114;13.666;2024-03-07T01:26:47;225.13;;;38.78;;
36353;SDS011;22383;51.114;13.666;2024-03-07T01:29:15;145.20;;;37.47;;
36353;SDS011;22383;51.114;13.666;2024-03-07T01:31:42;179.38;;;42.63;;
36353;SDS011;22383;51.114;13.666;2024-03-07T01:34:10;124.80;;;34.17;;
36353;SDS011;22383;51.114;13.666;2024-03-07T01:36:37;170.07;;;40.45;;
36353;SDS011;22383;51.114;13.666;2024-03-07T01:39:04;218.48;;;41.88;;
36353;SDS011;22383;51.114;13.666;2024-03-07T01:41:32;171.85;;;38.95;;
36353;SDS011;22383;51.114;13.666;2024-03-07T01:44:01;211.15;;;42.50;;
36353;SDS011;22383;51.114;13.666;2024-03-07T01:46:28;193.60;;;42.35;;
36353;SDS011;22383;51.114;13.666;2024-03-07T01:51:24;122.70;;;36.42;;
36353;SDS011;22383;51.114;13.666;2024-03-07T01:53:52;132.45;;;38.60;;
36353;SDS011;22383;51.114;13.666;2024-03-07T01:56:20;137.77;;;38.83;;
36353;SDS011;22383;51.114;13.666;2024-03-07T01:58:48;144.35;;;38.75;;
36353;SDS011;22383;51.114;13.666;2024-03-07T02:01:17;120.70;;;38.72;;
36353;SDS011;22383;51.114;13.666;2024-03-07T02:03:44;116.53;;;38.30;;
36353;SDS011;22383;51.114;13.666;2024-03-07T02:06:11;131.52;;;38.72;;
36353;SDS011;22383;51.114;13.666;2024-03-07T02:08:39;133.20;;;40.50;;
36353;SDS011;22383;51.114;13.666;2024-03-07T02:11:07;121.10;;;39.60;;
36353;SDS011;22383;51.114;13.666;2024-03-07T02:13:36;129.90;;;40.70;;
36353;SDS011;22383;51.114;13.666;2024-03-07T02:16:04;124.68;;;40.35;;
36353;SDS011;22383;51.114;13.666;2024-03-07T02:18:31;130.80;;;40.47;;
36353;SDS011;22383;51.114;13.666;2024-03-07T02:20:59;113.90;;;38.45;;
36353;SDS011;22383;51.114;13.666;2024-03-07T02:23:27;125.35;;;39.58;;
36353;SDS011;22383;51.114;13.666;2024-03-07T02:28:21;110.53;;;35.33;;
36353;SDS011;22383;51.114;13.666;2024-03-07T02:30:49;121.47;;;38.90;;
36353;SDS011;22383;51.114;13.666;2024-03-07T02:33:16;114.70;;;38.33;;
36353;SDS011;22383;51.114;13.666;2024-03-07T02:35:43;119.97;;;40.65;;
36353;SDS011;22383;51.114;13.666;2024-03-07T02:40:38;107.15;;;36.50;;
36353;SDS011;22383;51.114;13.666;2024-03-07T02:43:05;120.35;;;39.65;;
36353;SDS011;22383;51.114;13.666;2024-03-07T02:45:32;102.28;;;36.90;;
36353;SDS011;22383;51.114;13.666;2024-03-07T02:48:00;117.90;;;40.58;;
36353;SDS011;22383;51.114;13.666;2024-03-07T02:50:27;117.55;;;39.42;;
36353;SDS011;22383;51.114;13.666;2024-03-07T02:52:54;107.72;;;38.58;;
36353;SDS011;22383;51.114;13.666;2024-03-07T02:55:21;116.45;;;41.03;;
36353;SDS011;22383;51.114;13.666;2024-03-07T02:57:48;119.82;;;40.67;;
36353;SDS011;22383;51.114;13.666;2024-03-07T03:00:16;109.55;;;38.85;;
36353;SDS011;22383;51.114;13.666;2024-03-07T03:02:48;128.75;;;40.45;;
36353;SDS011;22383;51.114;13.666;2024-03-07T03:05:16;118.05;;;37.22;;
36353;SDS011;22383;51.114;13.666;2024-03-07T03:07:46;114.82;;;39.63;;
36353;SDS011;22383;51.114;13.666;2024-03-07T03:10:24;105.65;;;37.08;;
36353;SDS011;22383;51.114;13.666;2024-03-07T03:13:00;114.25;;;39.90;;
36353;SDS011;22383;51.114;13.666;2024-03-07T03:15:29;104.25;;;38.55;;
36353;SDS011;22383;51.114;13.666;2024-03-07T03:17:57;108.35;;;38.20;;
36353;SDS011;22383;51.114;13.666;2024-03-07T03:20:29;98.38;;;36.92;;
36353;SDS011;22383;51.114;13.666;2024-03-07T03:23:05;100.28;;;36.15;;
36353;SDS011;22383;51.114;13.666;2024-03-07T03:25:46;101.68;;;37.83;;
36353;SDS011;22383;51.114;13.666;2024-03-07T03:28:16;102.45;;;36.55;;
36353;SDS011;22383;51.114;13.666;2024-03-07T03:30:46;96.35;;;38.33;;
36353;SDS011;22383;51.114;13.666;2024-03-07T03:33:13;102.47;;;36.80;;
36353;SDS011;22383;51.114;13.666;2024-03-07T03:35:42;95.80;;;37.05;;
36353;SDS011;22383;51.114;13.666;2024-03-07T03:38:09;109.53;;;37.80;;
36353;SDS011;22383;51.114;13.666;2024-03-07T03:40:37;100.75;;;36.65;;
36353;SDS011;22383;51.114;13.666;2024-03-07T03:43:04;104.80;;;38.67;;
36353;SDS011;22383;51.114;13.666;2024-03-07T03:45:31;99.28;;;37.55;;
36353;SDS011;22383;51.114;13.666;2024-03-07T03:48:02;99.07;;;36.15;;
36353;SDS011;22383;51.114;13.666;2024-03-07T03:50:30;94.53;;;35.53;;
36353;SDS011;22383;51.114;13.666;2024-03-07T03:52:58;93.53;;;36.17;;
36353;SDS011;22383;51.114;13.666;2024-03-07T03:55:28;92.00;;;36.60;;
36353;SDS011;22383;51.114;13.666;2024-03-07T03:57:55;119.97;;;37.67;;
36353;SDS011;22383;51.114;13.666;2024-03-07T04:00:22;105.80;;;37.33;;
36353;SDS011;22383;51.114;13.666;2024-03-07T04:02:50;89.40;;;35.78;;
36353;SDS011;22383;51.114;13.666;2024-03-07T04:05:19;105.60;;;38.47;;
36353;SDS011;22383;51.114;13.666;2024-03-07T04:07:47;97.25;;;37.53;;
36353;SDS011;22383;51.114;13.666;2024-03-07T04:10:15;110.85;;;40.63;;
36353;SDS011;22383;51.114;13.666;2024-03-07T04:12:44;111.07;;;39.10;;
36353;SDS011;22383;51.114;13.666;2024-03-07T04:15:12;109.82;;;38.53;;
36353;SDS011;22383;51.114;13.666;2024-03-07T04:17:44;103.07;;;37.15;;
36353;SDS011;22383;51.114;13.666;2024-03-07T04:20:15;101.00;;;37.72;;
36353;SDS011;22383;51.114;13.666;2024-03-07T04:22:46;105.32;;;40.00;;
36353;SDS011;22383;51.114;13.666;2024-03-07T04:25:13;108.78;;;41.13;;
36353;SDS011;22383;51.114;13.666;2024-03-07T04:27:41;111.55;;;39.42;;
36353;SDS011;22383;51.114;13.666;2024-03-07T04:30:09;124.63;;;42.33;;
36353;SDS011;22383;51.114;13.666;2024-03-07T04:32:39;105.13;;;39.78;;
36353;SDS011;22383;51.114;13.666;2024-03-07T04:35:07;105.68;;;40.05;;
36353;SDS011;22383;51.114;13.666;2024-03-07T04:37:35;106.20;;;40.42;;
36353;SDS011;22383;51.114;13.666;2024-03-07T04:40:07;97.97;;;37.13;;
36353;SDS011;22383;51.114;13.666;2024-03-07T04:42:47;110.93;;;40.55;;
36353;SDS011;22383;51.114;13.666;2024-03-07T04:45:17;107.40;;;41.05;;
36353;SDS011;22383;51.114;13.666;2024-03-07T04:47:45;111.90;;;41.03;;
36353;SDS011;22383;51.114;13.666;2024-03-07T04:50:13;111.75;;;39.88;;
36353;SDS011;22383;51.114;13.666;2024-03-07T04:52:46;116.90;;;40.42;;
36353;SDS011;22383;51.114;13.666;2024-03-07T04:55:15;108.75;;;42.00;;
36353;SDS011;22383;51.114;13.666;2024-03-07T04:57:43;113.30;;;43.08;;
36353;SDS011;22383;51.114;13.666;2024-03-07T05:00:11;120.97;;;42.33;;
36353;SDS011;22383;51.114;13.666;2024-03-07T05:02:48;123.60;;;43.20;;
36353;SDS011;22383;51.114;13.666;2024-03-07T05:05:17;118.93;;;41.10;;
36353;SDS011;22383;51.114;13.666;2024-03-07T05:07:49;103.63;;;40.30;;
36353;SDS011;22383;51.114;13.666;2024-03-07T05:10:17;101.93;;;38.92;;
36353;SDS011;22383;51.114;13.666;2024-03-07T05:12:45;102.05;;;38.17;;
36353;SDS011;22383;51.114;13.666;2024-03-07T05:15:12;103.30;;;39.58;;
36353;SDS011;22383;51.114;13.666;2024-03-07T05:17:39;105.60;;;38.53;;
36353;SDS011;22383;51.114;13.666;2024-03-07T05:20:10;105.85;;;38.65;;
36353;SDS011;22383;51.114;13.666;2024-03-07T05:22:38;106.07;;;37.80;;
36353;SDS011;22383;51.114;13.666;2024-03-07T05:25:18;98.50;;;38.10;;
36353;SDS011;22383;51.114;13.666;2024-03-07T05:27:46;103.03;;;38.40;;
36353;SDS011;22383;51.114;13.666;2024-03-07T05:30:13;93.50;;;37.60;;
36353;SDS011;22383;51.114;13.666;2024-03-07T05:32:42;88.78;;;35.85;;
36353;SDS011;22383;51.114;13.666;2024-03-07T05:35:10;95.05;;;36.70;;
36353;SDS011;22383;51.114;13.666;2024-03-07T05:37:38;93.10;;;35.85;;
36353;SDS011;22383;51.114;13.666;2024-03-07T05:40:09;91.78;;;35.15;;
36353;SDS011;22383;51.114;13.666;2024-03-07T05:42:36;89.15;;;35.75;;
36353;SDS011;22383;51.114;13.666;2024-03-07T05:45:03;92.32;;;35.08;;
36353;SDS011;22383;51.114;13.666;2024-03-07T05:47:35;89.07;;;36.42;;
36353;SDS011;22383;51.114;13.666;2024-03-07T05:50:02;91.30;;;36.47;;
36353;SDS011;22383;51.114;13.666;2024-03-07T05:52:30;98.85;;;35.90;;
36353;SDS011;22383;51.114;13.666;2024-03-07T05:54:58;90.63;;;36.92;;
36353;SDS011;22383;51.114;13.666;2024-03-07T05:57:25;97.55;;;36.67;;
36353;SDS011;22383;51.114;13.666;2024-03-07T05:59:52;90.90;;;36.47;;
36353;SDS011;22383;51.114;13.666;2024-03-07T06:02:19;96.53;;;37.75;;
36353;SDS011;22383;51.114;13.666;2024-03-07T06:04:47;98.45;;;35.80;;
36353;SDS011;22383;51.114;13.666;2024-03-07T06:07:14;90.72;;;35.08;;
36353;SDS011;22383;51.114;13.666;2024-03-07T06:09:41;81.68;;;32.00;;
36353;SDS011;22383;51.114;13.666;2024-03-07T06:12:10;87.88;;;34.15;;
36353;SDS011;22383;51.114;13.666;2024-03-07T06:14:49;78.40;;;33.15;;
36353;SDS011;22383;51.114;13.666;2024-03-07T06:19:48;79.93;;;30.08;;
36353;SDS011;22383;51.114;13.666;2024-03-07T06:22:15;100.15;;;33.13;;
36353;SDS011;22383;51.114;13.666;2024-03-07T06:24:42;87.40;;;32.85;;
36353;SDS011;22383;51.114;13.666;2024-03-07T06:27:10;84.40;;;33.22;;
36353;SDS011;22383;51.114;13.666;2024-03-07T06:29:53;88.05;;;33.72;;
36353;SDS011;22383;51.114;13.666;2024-03-07T06:32:20;86.85;;;33.58;;
36353;SDS011;22383;51.114;13.666;2024-03-07T06:34:49;81.13;;;32.30;;
36353;SDS011;22383;51.114;13.666;2024-03-07T06:37:16;93.07;;;33.65;;
36353;SDS011;22383;51.114;13.666;2024-03-07T06:39:46;85.50;;;33.60;;
36353;SDS011;22383;51.114;13.666;2024-03-07T06:42:13;84.20;;;32.80;;
36353;SDS011;22383;51.114;13.666;2024-03-07T06:44:42;78.35;;;32.58;;
36353;SDS011;22383;51.114;13.666;2024-03-07T06:47:09;88.00;;;30.55;;
36353;SDS011;22383;51.114;13.666;2024-03-07T06:49:37;81.07;;;32.75;;
36353;SDS011;22383;51.114;13.666;2024-03-07T06:52:04;78.15;;;30.77;;
36353;SDS011;22383;51.114;13.666;2024-03-07T06:54:31;77.30;;;30.90;;
36353;SDS011;22383;51.114;13.666;2024-03-07T06:56:58;79.47;;;31.90;;
36353;SDS011;22383;51.114;13.666;2024-03-07T06:59:26;82.13;;;31.27;;
36353;SDS011;22383;51.114;13.666;2024-03-07T07:01:53;75.82;;;30.40;;
36353;SDS011;22383;51.114;13.666;2024-03-07T07:04:21;75.55;;;30.33;;
36353;SDS011;22383;51.114;13.666;2024-03-07T07:06:50;74.35;;;29.08;;
36353;SDS011;22383;51.114;13.666;2024-03-07T07:09:17;69.35;;;28.02;;
36353;SDS011;22383;51.114;13.666;2024-03-07T07:11:46;69.20;;;30.15;;
36353;SDS011;22383;51.114;13.666;2024-03-07T07:14:14;80.75;;;28.73;;
36353;SDS011;22383;51.114;13.666;2024-03-07T07:16:41;69.38;;;27.45;;
36353;SDS011;22383;51.114;13.666;2024-03-07T07:19:12;79.80;;;28.55;;
36353;SDS011;22383;51.114;13.666;2024-03-07T07:21:39;66.28;;;24.98;;
36353;SDS011;22383;51.114;13.666;2024-03-07T07:24:08;61.72;;;23.55;;
36353;SDS011;22383;51.114;13.666;2024-03-07T07:26:35;64.72;;;27.08;;
36353;SDS011;22383;51.114;13.666;2024-03-07T07:29:02;55.53;;;25.63;;
36353;SDS011;22383;51.114;13.666;2024-03-07T07:31:31;57.05;;;25.25;;
36353;SDS011;22383;51.114;13.666;2024-03-07T07:33:59;62.58;;;25.80;;
36353;SDS011;22383;51.114;13.666;2024-03-07T07:36:26;67.20;;;25.13;;
36353;SDS011;22383;51.114;13.666;2024-03-07T07:38:57;57.78;;;22.67;;
36353;SDS011;22383;51.114;13.666;2024-03-07T07:41:25;55.88;;;22.15;;
36353;SDS011;22383;51.114;13.666;2024-03-07T07:43:52;59.47;;;22.55;;
36353;SDS011;22383;51.114;13.666;2024-03-07T07:46:19;51.70;;;22.25;;
36353;SDS011;22383;51.114;13.666;2024-03-07T07:48:47;47.70;;;19.65;;
36353;SDS011;22383;51.114;13.666;2024-03-07T07:51:14;46.00;;;20.50;;
36353;SDS011;22383;51.114;13.666;2024-03-07T07:53:42;50.03;;;22.15;;
36353;SDS011;22383;51.114;13.666;2024-03-07T07:56:10;50.92;;;21.13;;
36353;SDS011;22383;51.114;13.666;2024-03-07T07:58:37;51.38;;;22.42;;
36353;SDS011;22383;51.114;13.666;2024-03-07T08:01:05;48.90;;;21.10;;
36353;SDS011;22383;51.114;13.666;2024-03-07T08:03:34;51.45;;;21.40;;
36353;SDS011;22383;51.114;13.666;2024-03-07T08:06:02;45.53;;;20.70;;
36353;SDS011;22383;51.114;13.666;2024-03-07T08:08:30;43.25;;;18.40;;
36353;SDS011;22383;51.114;13.666;2024-03-07T08:13:26;39.95;;;16.08;;
36353;SDS011;22383;51.114;13.666;2024-03-07T08:15:53;40.45;;;17.60;;
36353;SDS011;22383;51.114;13.666;2024-03-07T08:18:21;40.33;;;17.40;;
36353;SDS011;22383;51.114;13.666;2024-03-07T08:20:48;40.60;;;16.88;;
36353;SDS011;22383;51.114;13.666;2024-03-07T08:23:18;48.67;;;19.65;;
36353;SDS011;22383;51.114;13.666;2024-03-07T08:25:46;38.20;;;18.13;;
36353;SDS011;22383;51.114;13.666;2024-03-07T08:28:13;39.03;;;17.75;;
36353;SDS011;22383;51.114;13.666;2024-03-07T08:30:41;43.10;;;18.00;;
36353;SDS011;22383;51.114;13.666;2024-03-07T08:33:08;34.33;;;16.25;;
36353;SDS011;22383;51.114;13.666;2024-03-07T08:35:37;44.97;;;19.80;;
36353;SDS011;22383;51.114;13.666;2024-03-07T08:38:04;44.03;;;18.95;;
36353;SDS011;22383;51.114;13.666;2024-03-07T08:43:00;35.35;;;16.25;;
36353;SDS011;22383;51.114;13.666;2024-03-07T08:45:29;39.28;;;16.52;;
36353;SDS011;22383;51.114;13.666;2024-03-07T08:50:26;33.85;;;15.45;;
36353;SDS011;22383;51.114;13.666;2024-03-07T08:52:55;35.30;;;15.75;;
36353;SDS011;22383;51.114;13.666;2024-03-07T08:55:23;30.48;;;14.52;;
36353;SDS011;22383;51.114;13.666;2024-03-07T08:57:54;29.95;;;14.73;;
36353;SDS011;22383;51.114;13.666;2024-03-07T09:00:21;32.92;;;14.48;;
36353;SDS011;22383;51.114;13.666;2024-03-07T09:02:50;32.85;;;14.43;;
36353;SDS011;22383;51.114;13.666;2024-03-07T09:05:20;35.15;;;15.15;;
36353;SDS011;22383;51.114;13.666;2024-03-07T09:07:50;30.65;;;14.23;;
36353;SDS011;22383;51.114;13.666;2024-03-07T09:10:20;30.95;;;14.82;;
36353;SDS011;22383;51.114;13.666;2024-03-07T09:12:49;30.65;;;13.73;;
36353;SDS011;22383;51.114;13.666;2024-03-07T09:15:19;31.13;;;14.13;;
36353;SDS011;22383;51.114;13.666;2024-03-07T09:17:49;31.75;;;15.10;;
36353;SDS011;22383;51.114;13.666;2024-03-07T09:20:16;30.92;;;15.57;;
36353;SDS011;22383;51.114;13.666;2024-03-07T09:22:46;36.47;;;16.40;;
36353;SDS011;22383;51.114;13.666;2024-03-07T09:25:15;34.47;;;15.00;;
36353;SDS011;22383;51.114;13.666;2024-03-07T09:27:43;36.10;;;15.80;;
36353;SDS011;22383;51.114;13.666;2024-03-07T09:30:11;29.08;;;13.95;;
36353;SDS011;22383;51.114;13.666;2024-03-07T09:32:40;29.92;;;15.10;;
36353;SDS011;22383;51.114;13.666;2024-03-07T09:35:08;33.25;;;13.68;;
36353;SDS011;22383;51.114;13.666;2024-03-07T09:37:39;37.15;;;15.68;;
36353;SDS011;22383;51.114;13.666;2024-03-07T09:40:08;39.90;;;16.95;;
36353;SDS011;22383;51.114;13.666;2024-03-07T09:42:45;35.22;;;16.52;;
36353;SDS011;22383;51.114;13.666;2024-03-07T09:45:18;34.05;;;14.50;;
36353;SDS011;22383;51.114;13.666;2024-03-07T09:47:50;28.40;;;13.88;;
36353;SDS011;22383;51.114;13.666;2024-03-07T09:50:21;37.05;;;14.50;;
36353;SDS011;22383;51.114;13.666;2024-03-07T09:52:50;35.30;;;16.50;;
36353;SDS011;22383;51.114;13.666;2024-03-07T09:55:19;40.22;;;17.58;;
36353;SDS011;22383;51.114;13.666;2024-03-07T09:57:48;38.90;;;17.65;;
36353;SDS011;22383;51.114;13.666;2024-03-07T10:00:17;40.50;;;17.50;;
36353;SDS011;22383;51.114;13.666;2024-03-07T10:03:08;40.58;;;18.52;;
36353;SDS011;22383;51.114;13.666;2024-03-07T10:05:36;33.95;;;16.55;;
36353;SDS011;22383;51.114;13.666;2024-03-07T10:08:05;43.03;;;19.13;;
36353;SDS011;22383;51.114;13.666;2024-03-07T10:10:34;47.53;;;18.90;;
36353;SDS011;22383;51.114;13.666;2024-03-07T10:13:01;47.83;;;19.92;;
36353;SDS011;22383;51.114;13.666;2024-03-07T10:15:30;33.80;;;16.67;;
36353;SDS011;22383;51.114;13.666;2024-03-07T10:17:59;40.85;;;17.95;;
36353;SDS011;22383;51.114;13.666;2024-03-07T10:20:28;41.80;;;18.40;;
36353;SDS011;22383;51.114;13.666;2024-03-07T10:22:56;34.50;;;15.95;;
36353;SDS011;22383;51.114;13.666;2024-03-07T10:27:53;35.03;;;17.25;;
36353;SDS011;22383;51.114;13.666;2024-03-07T10:30:21;43.13;;;15.88;;
36353;SDS011;22383;51.114;13.666;2024-03-07T10:32:58;33.35;;;15.65;;
36353;SDS011;22383;51.114;13.666;2024-03-07T10:35:29;33.65;;;15.38;;
36353;SDS011;22383;51.114;13.666;2024-03-07T10:37:58;34.92;;;16.05;;
36353;SDS011;22383;51.114;13.666;2024-03-07T10:40:34;30.88;;;15.32;;
36353;SDS011;22383;51.114;13.666;2024-03-07T10:43:12;37.20;;;16.67;;
36353;SDS011;22383;51.114;13.666;2024-03-07T10:45:46;40.00;;;17.50;;
36353;SDS011;22383;51.114;13.666;2024-03-07T10:48:19;40.90;;;18.02;;
36353;SDS011;22383;51.114;13.666;2024-03-07T10:50:54;43.75;;;17.45;;
36353;SDS011;22383;51.114;13.666;2024-03-07T10:53:46;38.30;;;16.00;;
36353;SDS011;22383;51.114;13.666;2024-03-07T10:56:34;36.67;;;16.83;;
36353;SDS011;22383;51.114;13.666;2024-03-07T10:59:18;33.60;;;16.65;;
36353;SDS011;22383;51.114;13.666;2024-03-07T11:01:57;45.40;;;17.73;;
36353;SDS011;22383;51.114;13.666;2024-03-07T11:04:27;36.13;;;16.00;;
36353;SDS011;22383;51.114;13.666;2024-03-07T11:06:56;42.08;;;17.30;;
36353;SDS011;22383;51.114;13.666;2024-03-07T11:09:23;39.60;;;17.05;;
36353;SDS011;22383;51.114;13.666;2024-03-07T11:11:50;47.47;;;18.33;;
36353;SDS011;22383;51.114;13.666;2024-03-07T11:14:18;34.65;;;17.48;;
36353;SDS011;22383;51.114;13.666;2024-03-07T11:16:46;38.63;;;16.45;;
36353;SDS011;22383;51.114;13.666;2024-03-07T11:21:54;39.15;;;17.02;;
36353;SDS011;22383;51.114;13.666;2024-03-07T11:24:26;42.17;;;17.02;;
36353;SDS011;22383;51.114;13.666;2024-03-07T11:26:56;36.67;;;14.75;;
36353;SDS011;22383;51.114;13.666;2024-03-07T11:29:40;34.10;;;15.27;;
36353;SDS011;22383;51.114;13.666;2024-03-07T11:32:11;29.48;;;13.48;;
36353;SDS011;22383;51.114;13.666;2024-03-07T11:34:41;35.22;;;14.57;;
36353;SDS011;22383;51.114;13.666;2024-03-07T11:37:09;34.75;;;14.95;;
36353;SDS011;22383;51.114;13.666;2024-03-07T11:39:48;33.58;;;14.63;;
36353;SDS011;22383;51.114;13.666;2024-03-07T11:42:26;34.65;;;14.63;;
36353;SDS011;22383;51.114;13.666;2024-03-07T11:44:55;46.22;;;17.05;;
36353;SDS011;22383;51.114;13.666;2024-03-07T11:47:24;40.15;;;16.08;;
36353;SDS011;22383;51.114;13.666;2024-03-07T11:49:56;38.75;;;17.42;;
36353;SDS011;22383;51.114;13.666;2024-03-07T11:52:25;35.30;;;16.13;;
36353;SDS011;22383;51.114;13.666;2024-03-07T11:54:55;38.05;;;15.85;;
36353;SDS011;22383;51.114;13.666;2024-03-07T11:57:31;32.83;;;14.98;;
36353;SDS011;22383;51.114;13.666;2024-03-07T12:00:02;31.13;;;15.38;;
36353;SDS011;22383;51.114;13.666;2024-03-07T12:02:39;37.80;;;15.18;;
36353;SDS011;22383;51.114;13.666;2024-03-07T12:05:08;32.13;;;15.07;;
36353;SDS011;22383;51.114;13.666;2024-03-07T12:07:35;35.58;;;16.00;;
36353;SDS011;22383;51.114;13.666;2024-03-07T12:12:31;39.28;;;14.45;;
36353;SDS011;22383;51.114;13.666;2024-03-07T12:15:00;36.33;;;15.70;;
36353;SDS011;22383;51.114;13.666;2024-03-07T12:17:33;38.38;;;16.35;;
36353;SDS011;22383;51.114;13.666;2024-03-07T12:20:01;36.00;;;15.88;;
36353;SDS011;22383;51.114;13.666;2024-03-07T12:22:48;34.22;;;15.13;;
36353;SDS011;22383;51.114;13.666;2024-03-07T12:25:17;35.20;;;15.05;;
36353;SDS011;22383;51.114;13.666;2024-03-07T12:27:59;32.28;;;16.38;;
36353;SDS011;22383;51.114;13.666;2024-03-07T12:30:29;34.50;;;14.40;;
36353;SDS011;22383;51.114;13.666;2024-03-07T12:33:01;37.55;;;14.95;;
36353;SDS011;22383;51.114;13.666;2024-03-07T12:35:31;31.05;;;14.32;;
36353;SDS011;22383;51.114;13.666;2024-03-07T12:37:59;32.58;;;13.60;;
36353;SDS011;22383;51.114;13.666;2024-03-07T12:40:26;31.42;;;15.25;;
36353;SDS011;22383;51.114;13.666;2024-03-07T12:43:01;31.33;;;14.13;;
36353;SDS011;22383;51.114;13.666;2024-03-07T12:45:29;29.83;;;13.68;;
36353;SDS011;22383;51.114;13.666;2024-03-07T12:47:56;32.88;;;14.48;;
36353;SDS011;22383;51.114;13.666;2024-03-07T12:50:25;31.20;;;14.88;;
36353;SDS011;22383;51.114;13.666;2024-03-07T12:52:52;31.17;;;14.20;;
36353;SDS011;22383;51.114;13.666;2024-03-07T12:55:19;28.63;;;13.75;;
36353;SDS011;22383;51.114;13.666;2024-03-07T12:57:48;28.88;;;13.55;;
36353;SDS011;22383;51.114;13.666;2024-03-07T13:00:17;26.98;;;14.48;;
36353;SDS011;22383;51.114;13.666;2024-03-07T13:02:48;31.15;;;13.40;;
36353;SDS011;22383;51.114;13.666;2024-03-07T13:05:17;31.05;;;14.63;;
36353;SDS011;22383;51.114;13.666;2024-03-07T13:07:49;30.45;;;14.27;;
36353;SDS011;22383;51.114;13.666;2024-03-07T13:10:16;36.33;;;14.43;;
36353;SDS011;22383;51.114;13.666;2024-03-07T13:12:45;30.70;;;14.05;;
36353;SDS011;22383;51.114;13.666;2024-03-07T13:15:15;24.48;;;12.35;;
36353;SDS011;22383;51.114;13.666;2024-03-07T13:20:11;28.25;;;12.57;;
36353;SDS011;22383;51.114;13.666;2024-03-07T13:22:40;25.48;;;13.55;;
36353;SDS011;22383;51.114;13.666;2024-03-07T13:25:10;28.73;;;13.40;;
36353;SDS011;22383;51.114;13.666;2024-03-07T13:27:52;31.23;;;13.13;;
36353;SDS011;22383;51.114;13.666;2024-03-07T13:30:25;31.80;;;13.80;;
36353;SDS011;22383;51.114;13.666;2024-03-07T13:32:56;27.90;;;13.63;;
36353;SDS011;22383;51.114;13.666;2024-03-07T13:35:25;26.92;;;13.88;;
36353;SDS011;22383;51.114;13.666;2024-03-07T13:37:53;27.52;;;13.13;;
36353;SDS011;22383;51.114;13.666;2024-03-07T13:40:23;30.55;;;13.52;;
36353;SDS011;22383;51.114;13.666;2024-03-07T13:42:52;28.75;;;14.45;;
36353;SDS011;22383;51.114;13.666;2024-03-07T13:45:21;36.03;;;14.82;;
36353;SDS011;22383;51.114;13.666;2024-03-07T13:47:49;30.48;;;13.30;;
36353;SDS011;22383;51.114;13.666;2024-03-07T13:50:17;30.05;;;13.27;;
36353;SDS011;22383;51.114;13.666;2024-03-07T13:53:09;30.23;;;13.52;;
36353;SDS011;22383;51.114;13.666;2024-03-07T14:01:16;27.20;;;13.57;;
36353;SDS011;22383;51.114;13.666;2024-03-07T14:04:12;34.80;;;14.00;;
36353;SDS011;22383;51.114;13.666;2024-03-07T14:09:26;34.97;;;13.23;;
36353;SDS011;22383;51.114;13.666;2024-03-07T14:12:04;34.78;;;15.00;;
36353;SDS011;22383;51.114;13.666;2024-03-07T14:17:44;28.92;;;13.73;;
36353;SDS011;22383;51.114;13.666;2024-03-07T14:26:30;29.35;;;13.52;;
36353;SDS011;22383;51.114;13.666;2024-03-07T14:31:54;28.50;;;13.30;;
36353;SDS011;22383;51.114;13.666;2024-03-07T14:34:25;34.10;;;13.25;;
36353;SDS011;22383;51.114;13.666;2024-03-07T14:37:04;31.15;;;12.90;;
36353;SDS011;22383;51.114;13.666;2024-03-07T14:39:45;28.75;;;13.23;;
36353;SDS011;22383;51.114;13.666;2024-03-07T14:42:16;28.60;;;12.77;;
36353;SDS011;22383;51.114;13.666;2024-03-07T14:44:44;26.42;;;12.18;;
36353;SDS011;22383;51.114;13.666;2024-03-07T14:47:16;31.60;;;13.00;;
36353;SDS011;22383;51.114;13.666;2024-03-07T14:49:47;32.15;;;13.93;;
36353;SDS011;22383;51.114;13.666;2024-03-07T14:54:42;34.30;;;13.68;;
36353;SDS011;22383;51.114;13.666;2024-03-07T14:57:10;29.77;;;13.40;;
36353;SDS011;22383;51.114;13.666;2024-03-07T14:59:38;30.40;;;13.75;;
36353;SDS011;22383;51.114;13.666;2024-03-07T15:02:08;33.88;;;13.57;;
36353;SDS011;22383;51.114;13.666;2024-03-07T15:04:38;30.90;;;14.50;;
36353;SDS011;22383;51.114;13.666;2024-03-07T15:07:07;29.88;;;12.88;;
36353;SDS011;22383;51.114;13.666;2024-03-07T15:09:36;27.15;;;12.85;;
36353;SDS011;22383;51.114;13.666;2024-03-07T15:12:05;38.00;;;14.15;;